sensor_id;sensor_type;location;lat;lon;timestamp;temperature;humidity
43651;DHT22;29247;50.944;5.382;2023-10-13T00:00:33;19.50;99.90
43651;DHT22;29247;50.944;5.382;2023-10-13T00:03:03;19.50;99.90
43651;DHT22;29247;50.944;5.382;2023-10-13T00:05:29;19.50;99.90
43651;DHT22;29247;50.944;5.382;2023-10-13T00:08:02;19.50;99.90
43651;DHT22;29247;50.944;5.382;2023-10-13T00:10:31;19.50;99.90
43651;DHT22;29247;50.944;5.382;2023-10-13T00:13:00;19.50;99.90
43651;DHT22;29247;50.944;5.382;2023-10-13T00:15:42;19.50;99.90
43651;DHT22;29247;50.944;5.382;2023-10-13T00:18:28;19.50;99.90
43651;DHT22;29247;50.944;5.382;2023-10-13T00:20:59;19.50;99.90
43651;DHT22;29247;50.944;5.382;2023-10-13T00:23:24;19.50;99.90
43651;DHT22;29247;50.944;5.382;2023-10-13T00:25:52;19.50;99.90
43651;DHT22;29247;50.944;5.382;2023-10-13T00:28:30;19.60;99.90
43651;DHT22;29247;50.944;5.382;2023-10-13T00:31:08;19.60;99.90
43651;DHT22;29247;50.944;5.382;2023-10-13T00:33:38;19.60;99.90
43651;DHT22;29247;50.944;5.382;2023-10-13T00:36:05;19.60;99.90
43651;DHT22;29247;50.944;5.382;2023-10-13T00:38:33;19.60;99.90
43651;DHT22;29247;50.944;5.382;2023-10-13T00:40:59;19.60;99.90
43651;DHT22;29247;50.944;5.382;2023-10-13T00:43:35;19.60;99.90
43651;DHT22;29247;50.944;5.382;2023-10-13T00:46:31;19.60;99.90
43651;DHT22;29247;50.944;5.382;2023-10-13T00:48:59;19.60;99.90
43651;DHT22;29247;50.944;5.382;2023-10-13T00:51:25;19.60;99.90
43651;DHT22;29247;50.944;5.382;2023-10-13T00:54:07;19.60;99.90
43651;DHT22;29247;50.944;5.382;2023-10-13T00:56:37;19.60;99.90
43651;DHT22;29247;50.944;5.382;2023-10-13T00:59:07;19.60;99.90
43651;DHT22;29247;50.944;5.382;2023-10-13T01:01:35;19.60;99.90
43651;DHT22;29247;50.944;5.382;2023-10-13T01:04:02;19.60;99.90
43651;DHT22;29247;50.944;5.382;2023-10-13T01:06:29;19.60;99.90
43651;DHT22;29247;50.944;5.382;2023-10-13T01:09:01;19.60;99.90
43651;DHT22;29247;50.944;5.382;2023-10-13T01:11:41;19.60;99.90
43651;DHT22;29247;50.944;5.382;2023-10-13T01:14:09;19.60;99.90
43651;DHT22;29247;50.944;5.382;2023-10-13T01:16:37;19.60;99.90
43651;DHT22;29247;50.944;5.382;2023-10-13T01:19:12;19.60;99.90
43651;DHT22;29247;50.944;5.382;2023-10-13T01:21:43;19.60;99.90
43651;DHT22;29247;50.944;5.382;2023-10-13T01:24:13;19.60;99.90
43651;DHT22;29247;50.944;5.382;2023-10-13T01:26:44;19.60;99.90
43651;DHT22;29247;50.944;5.382;2023-10-13T01:29:10;19.60;99.90
43651;DHT22;29247;50.944;5.382;2023-10-13T01:31:43;19.60;99.90
43651;DHT22;29247;50.944;5.382;2023-10-13T01:34:13;19.60;99.90
43651;DHT22;29247;50.944;5.382;2023-10-13T01:36:45;19.60;99.90
43651;DHT22;29247;50.944;5.382;2023-10-13T01:39:13;19.60;99.90
43651;DHT22;29247;50.944;5.382;2023-10-13T01:41:42;19.60;99.90
43651;DHT22;29247;50.944;5.382;2023-10-13T01:44:09;19.60;99.90
43651;DHT22;29247;50.944;5.382;2023-10-13T01:46:37;19.60;99.90
43651;DHT22;29247;50.944;5.382;2023-10-13T01:49:03;19.60;99.90
43651;DHT22;29247;50.944;5.382;2023-10-13T01:51:29;19.60;99.90
43651;DHT22;29247;50.944;5.382;2023-10-13T01:53:55;19.60;99.90
43651;DHT22;29247;50.944;5.382;2023-10-13T01:56:24;19.60;99.90
43651;DHT22;29247;50.944;5.382;2023-10-13T01:58:52;19.60;99.90
43651;DHT22;29247;50.944;5.382;2023-10-13T02:01:19;19.60;99.90
43651;DHT22;29247;50.944;5.382;2023-10-13T02:03:56;19.60;99.90
43651;DHT22;29247;50.944;5.382;2023-10-13T02:06:33;19.60;99.90
43651;DHT22;29247;50.944;5.382;2023-10-13T02:09:07;19.60;99.90
43651;DHT22;29247;50.944;5.382;2023-10-13T02:11:43;19.60;99.90
43651;DHT22;29247;50.944;5.382;2023-10-13T02:14:14;19.60;99.90
43651;DHT22;29247;50.944;5.382;2023-10-13T02:16:42;19.60;99.90
43651;DHT22;29247;50.944;5.382;2023-10-13T02:19:12;19.60;99.90
43651;DHT22;29247;50.944;5.382;2023-10-13T02:21:41;19.60;99.90
43651;DHT22;29247;50.944;5.382;2023-10-13T02:24:24;19.60;99.90
43651;DHT22;29247;50.944;5.382;2023-10-13T02:26:58;19.60;99.90
43651;DHT22;29247;50.944;5.382;2023-10-13T02:29:30;19.60;99.90
43651;DHT22;29247;50.944;5.382;2023-10-13T02:31:56;19.60;99.90
43651;DHT22;29247;50.944;5.382;2023-10-13T02:34:22;19.60;99.90
43651;DHT22;29247;50.944;5.382;2023-10-13T02:36:49;19.60;99.90
43651;DHT22;29247;50.944;5.382;2023-10-13T02:39:18;19.70;99.90
43651;DHT22;29247;50.944;5.382;2023-10-13T02:42:01;19.70;99.90
43651;DHT22;29247;50.944;5.382;2023-10-13T02:44:35;19.70;99.90
43651;DHT22;29247;50.944;5.382;2023-10-13T02:47:03;19.70;99.90
43651;DHT22;29247;50.944;5.382;2023-10-13T02:49:40;19.70;99.90
43651;DHT22;29247;50.944;5.382;2023-10-13T02:52:12;19.70;99.90
43651;DHT22;29247;50.944;5.382;2023-10-13T02:54:39;19.70;99.90
43651;DHT22;29247;50.944;5.382;2023-10-13T02:57:08;19.70;99.90
43651;DHT22;29247;50.944;5.382;2023-10-13T02:59:34;19.70;99.90
43651;DHT22;29247;50.944;5.382;2023-10-13T03:02:09;19.70;99.90
43651;DHT22;29247;50.944;5.382;2023-10-13T03:04:56;19.70;99.90
43651;DHT22;29247;50.944;5.382;2023-10-13T03:07:28;19.70;99.90
43651;DHT22;29247;50.944;5.382;2023-10-13T03:09:57;19.70;99.90
43651;DHT22;29247;50.944;5.382;2023-10-13T03:12:25;19.70;99.90
43651;DHT22;29247;50.944;5.382;2023-10-13T03:14:54;19.70;99.90
43651;DHT22;29247;50.944;5.382;2023-10-13T03:17:37;19.70;99.90
43651;DHT22;29247;50.944;5.382;2023-10-13T03:20:18;19.70;99.90
43651;DHT22;29247;50.944;5.382;2023-10-13T03:22:48;19.70;99.90
43651;DHT22;29247;50.944;5.382;2023-10-13T03:25:18;19.80;99.90
43651;DHT22;29247;50.944;5.382;2023-10-13T03:27:50;19.80;99.90
43651;DHT22;29247;50.944;5.382;2023-10-13T03:30:17;19.70;99.90
43651;DHT22;29247;50.944;5.382;2023-10-13T03:32:43;19.80;99.90
43651;DHT22;29247;50.944;5.382;2023-10-13T03:35:16;19.80;99.90
43651;DHT22;29247;50.944;5.382;2023-10-13T03:37:58;19.80;99.90
43651;DHT22;29247;50.944;5.382;2023-10-13T03:40:24;19.80;99.90
43651;DHT22;29247;50.944;5.382;2023-10-13T03:42:51;19.80;99.90
43651;DHT22;29247;50.944;5.382;2023-10-13T03:45:33;19.80;99.90
43651;DHT22;29247;50.944;5.382;2023-10-13T03:48:08;19.80;99.90
43651;DHT22;29247;50.944;5.382;2023-10-13T03:50:43;19.80;99.90
43651;DHT22;29247;50.944;5.382;2023-10-13T03:53:16;19.80;99.90
43651;DHT22;29247;50.944;5.382;2023-10-13T03:55:44;19.80;99.90
43651;DHT22;29247;50.944;5.382;2023-10-13T03:58:14;19.80;99.90
43651;DHT22;29247;50.944;5.382;2023-10-13T04:00:42;19.80;99.90
43651;DHT22;29247;50.944;5.382;2023-10-13T04:03:08;19.80;99.90
43651;DHT22;29247;50.944;5.382;2023-10-13T04:05:44;19.80;99.90
43651;DHT22;29247;50.944;5.382;2023-10-13T04:08:29;19.80;99.90
43651;DHT22;29247;50.944;5.382;2023-10-13T04:10:56;19.90;99.90
43651;DHT22;29247;50.944;5.382;2023-10-13T04:13:22;19.80;99.90
43651;DHT22;29247;50.944;5.382;2023-10-13T04:16:10;19.80;99.90
43651;DHT22;29247;50.944;5.382;2023-10-13T04:18:50;19.80;99.90
43651;DHT22;29247;50.944;5.382;2023-10-13T04:21:28;19.90;99.90
43651;DHT22;29247;50.944;5.382;2023-10-13T04:24:15;19.90;99.90
43651;DHT22;29247;50.944;5.382;2023-10-13T04:26:51;19.90;99.90
43651;DHT22;29247;50.944;5.382;2023-10-13T04:29:46;19.90;99.90
43651;DHT22;29247;50.944;5.382;2023-10-13T04:32:12;19.90;99.90
43651;DHT22;29247;50.944;5.382;2023-10-13T04:34:57;19.90;99.90
43651;DHT22;29247;50.944;5.382;2023-10-13T04:37:37;19.90;99.90
43651;DHT22;29247;50.944;5.382;2023-10-13T04:40:15;19.90;99.90
43651;DHT22;29247;50.944;5.382;2023-10-13T04:42:43;19.90;99.90
43651;DHT22;29247;50.944;5.382;2023-10-13T04:45:29;19.90;99.90
43651;DHT22;29247;50.944;5.382;2023-10-13T04:47:59;19.90;99.90
43651;DHT22;29247;50.944;5.382;2023-10-13T04:50:48;19.90;99.90
43651;DHT22;29247;50.944;5.382;2023-10-13T04:53:18;19.90;99.90
43651;DHT22;29247;50.944;5.382;2023-10-13T04:55:59;19.90;99.90
43651;DHT22;29247;50.944;5.382;2023-10-13T04:58:31;19.90;99.90
43651;DHT22;29247;50.944;5.382;2023-10-13T05:00:59;19.90;99.90
43651;DHT22;29247;50.944;5.382;2023-10-13T05:03:43;19.90;99.90
43651;DHT22;29247;50.944;5.382;2023-10-13T05:06:27;19.90;99.90
43651;DHT22;29247;50.944;5.382;2023-10-13T05:09:14;19.90;99.90
43651;DHT22;29247;50.944;5.382;2023-10-13T05:11:58;19.90;99.90
43651;DHT22;29247;50.944;5.382;2023-10-13T05:14:43;20.00;99.90
43651;DHT22;29247;50.944;5.382;2023-10-13T05:17:29;19.90;99.90
43651;DHT22;29247;50.944;5.382;2023-10-13T05:20:13;19.90;99.90
43651;DHT22;29247;50.944;5.382;2023-10-13T05:22:57;19.90;99.90
43651;DHT22;29247;50.944;5.382;2023-10-13T05:25:43;19.90;99.90
43651;DHT22;29247;50.944;5.382;2023-10-13T05:28:30;20.00;99.90
43651;DHT22;29247;50.944;5.382;2023-10-13T05:31:17;19.90;99.90
43651;DHT22;29247;50.944;5.382;2023-10-13T05:34:01;19.90;99.90
43651;DHT22;29247;50.944;5.382;2023-10-13T05:36:45;20.00;99.90
43651;DHT22;29247;50.944;5.382;2023-10-13T05:39:51;20.00;99.90
43651;DHT22;29247;50.944;5.382;2023-10-13T05:42:35;19.90;99.90
43651;DHT22;29247;50.944;5.382;2023-10-13T05:45:22;20.00;99.90
43651;DHT22;29247;50.944;5.382;2023-10-13T05:48:05;19.90;99.90
43651;DHT22;29247;50.944;5.382;2023-10-13T05:50:39;19.90;99.90
43651;DHT22;29247;50.944;5.382;2023-10-13T05:53:43;19.90;99.90
43651;DHT22;29247;50.944;5.382;2023-10-13T05:56:27;19.90;99.90
43651;DHT22;29247;50.944;5.382;2023-10-13T05:59:11;19.90;99.90
43651;DHT22;29247;50.944;5.382;2023-10-13T06:01:55;19.90;99.90
43651;DHT22;29247;50.944;5.382;2023-10-13T06:04:39;19.90;99.90
43651;DHT22;29247;50.944;5.382;2023-10-13T06:07:23;19.90;99.90
43651;DHT22;29247;50.944;5.382;2023-10-13T06:10:08;19.90;99.90
43651;DHT22;29247;50.944;5.382;2023-10-13T06:12:52;19.90;99.90
43651;DHT22;29247;50.944;5.382;2023-10-13T06:15:36;19.90;99.90
43651;DHT22;29247;50.944;5.382;2023-10-13T06:18:21;19.90;99.90
43651;DHT22;29247;50.944;5.382;2023-10-13T06:21:05;19.90;99.90
43651;DHT22;29247;50.944;5.382;2023-10-13T06:23:49;19.90;99.90
43651;DHT22;29247;50.944;5.382;2023-10-13T06:26:33;19.90;99.90
43651;DHT22;29247;50.944;5.382;2023-10-13T06:29:17;19.90;99.90
43651;DHT22;29247;50.944;5.382;2023-10-13T06:31:45;19.90;99.90
43651;DHT22;29247;50.944;5.382;2023-10-13T06:34:11;19.90;99.90
43651;DHT22;29247;50.944;5.382;2023-10-13T06:36:41;19.90;99.90
43651;DHT22;29247;50.944;5.382;2023-10-13T06:39:07;20.00;99.90
43651;DHT22;29247;50.944;5.382;2023-10-13T06:42:02;19.90;99.90
43651;DHT22;29247;50.944;5.382;2023-10-13T06:44:28;20.00;99.90
43651;DHT22;29247;50.944;5.382;2023-10-13T06:46:58;20.00;99.90
43651;DHT22;29247;50.944;5.382;2023-10-13T06:49:24;20.00;99.90
43651;DHT22;29247;50.944;5.382;2023-10-13T06:51:50;20.00;99.90
43651;DHT22;29247;50.944;5.382;2023-10-13T06:54:16;20.00;99.90
43651;DHT22;29247;50.944;5.382;2023-10-13T06:56:46;20.00;99.90
43651;DHT22;29247;50.944;5.382;2023-10-13T06:59:17;20.10;99.90
43651;DHT22;29247;50.944;5.382;2023-10-13T07:01:43;20.00;99.90
43651;DHT22;29247;50.944;5.382;2023-10-13T07:04:10;20.10;99.90
43651;DHT22;29247;50.944;5.382;2023-10-13T07:06:42;20.10;99.90
43651;DHT22;29247;50.944;5.382;2023-10-13T07:09:14;20.10;99.90
43651;DHT22;29247;50.944;5.382;2023-10-13T07:11:59;20.10;99.90
43651;DHT22;29247;50.944;5.382;2023-10-13T07:14:54;20.10;99.90
43651;DHT22;29247;50.944;5.382;2023-10-13T07:17:38;20.10;99.90
43651;DHT22;29247;50.944;5.382;2023-10-13T07:20:11;20.10;99.90
43651;DHT22;29247;50.944;5.382;2023-10-13T07:22:58;20.10;99.90
43651;DHT22;29247;50.944;5.382;2023-10-13T07:25:34;20.20;99.90
43651;DHT22;29247;50.944;5.382;2023-10-13T07:28:07;20.10;99.90
43651;DHT22;29247;50.944;5.382;2023-10-13T07:30:35;20.10;99.90
43651;DHT22;29247;50.944;5.382;2023-10-13T07:33:19;20.10;99.90
43651;DHT22;29247;50.944;5.382;2023-10-13T07:35:59;20.20;99.90
43651;DHT22;29247;50.944;5.382;2023-10-13T07:38:25;20.10;99.90
43651;DHT22;29247;50.944;5.382;2023-10-13T07:40:56;20.10;99.90
43651;DHT22;29247;50.944;5.382;2023-10-13T07:43:25;20.20;99.90
43651;DHT22;29247;50.944;5.382;2023-10-13T07:45:53;20.10;99.90
43651;DHT22;29247;50.944;5.382;2023-10-13T07:48:23;20.10;99.90
43651;DHT22;29247;50.944;5.382;2023-10-13T07:51:02;20.20;99.90
43651;DHT22;29247;50.944;5.382;2023-10-13T07:53:31;20.20;99.90
43651;DHT22;29247;50.944;5.382;2023-10-13T07:56:09;20.20;99.90
43651;DHT22;29247;50.944;5.382;2023-10-13T07:58:38;20.10;99.90
43651;DHT22;29247;50.944;5.382;2023-10-13T08:01:27;20.10;99.90
43651;DHT22;29247;50.944;5.382;2023-10-13T08:03:52;20.10;99.90
43651;DHT22;29247;50.944;5.382;2023-10-13T08:06:44;20.20;99.90
43651;DHT22;29247;50.944;5.382;2023-10-13T08:09:10;20.20;99.90
43651;DHT22;29247;50.944;5.382;2023-10-13T08:12:06;20.30;99.90
43651;DHT22;29247;50.944;5.382;2023-10-13T08:14:38;20.30;99.90
43651;DHT22;29247;50.944;5.382;2023-10-13T08:17:08;20.40;99.90
43651;DHT22;29247;50.944;5.382;2023-10-13T08:19:38;20.40;99.90
43651;DHT22;29247;50.944;5.382;2023-10-13T08:22:17;20.40;99.90
43651;DHT22;29247;50.944;5.382;2023-10-13T08:24:43;20.50;99.90
43651;DHT22;29247;50.944;5.382;2023-10-13T08:27:12;20.50;99.90
43651;DHT22;29247;50.944;5.382;2023-10-13T08:29:47;20.60;99.90
43651;DHT22;29247;50.944;5.382;2023-10-13T08:32:26;20.60;99.90
43651;DHT22;29247;50.944;5.382;2023-10-13T08:35:00;20.60;99.90
43651;DHT22;29247;50.944;5.382;2023-10-13T08:37:27;20.70;99.90
43651;DHT22;29247;50.944;5.382;2023-10-13T08:39:57;20.70;99.90
43651;DHT22;29247;50.944;5.382;2023-10-13T08:45:22;20.80;99.90
43651;DHT22;29247;50.944;5.382;2023-10-13T08:47:52;20.90;99.90
43651;DHT22;29247;50.944;5.382;2023-10-13T08:50:49;20.90;99.90
43651;DHT22;29247;50.944;5.382;2023-10-13T08:53:16;20.90;99.90
43651;DHT22;29247;50.944;5.382;2023-10-13T08:56:05;21.00;99.90
43651;DHT22;29247;50.944;5.382;2023-10-13T08:58:32;21.00;99.90
43651;DHT22;29247;50.944;5.382;2023-10-13T09:01:17;21.00;99.90
43651;DHT22;29247;50.944;5.382;2023-10-13T09:04:02;21.10;99.90
43651;DHT22;29247;50.944;5.382;2023-10-13T09:12:24;21.20;99.90
43651;DHT22;29247;50.944;5.382;2023-10-13T09:15:09;21.20;99.90
43651;DHT22;29247;50.944;5.382;2023-10-13T09:17:44;21.20;99.70
43651;DHT22;29247;50.944;5.382;2023-10-13T09:20:33;21.30;99.50
43651;DHT22;29247;50.944;5.382;2023-10-13T09:23:13;21.30;99.40
43651;DHT22;29247;50.944;5.382;2023-10-13T09:25:49;21.40;99.40
43651;DHT22;29247;50.944;5.382;2023-10-13T09:28:34;21.50;99.30
43651;DHT22;29247;50.944;5.382;2023-10-13T09:31:03;21.50;99.10
43651;DHT22;29247;50.944;5.382;2023-10-13T09:33:32;21.60;99.00
43651;DHT22;29247;50.944;5.382;2023-10-13T09:36:02;21.60;98.90
43651;DHT22;29247;50.944;5.382;2023-10-13T09:38:32;21.60;98.60
43651;DHT22;29247;50.944;5.382;2023-10-13T09:41:04;21.60;98.40
43651;DHT22;29247;50.944;5.382;2023-10-13T09:43:52;21.60;98.20
43651;DHT22;29247;50.944;5.382;2023-10-13T09:46:26;21.70;98.10
43651;DHT22;29247;50.944;5.382;2023-10-13T09:49:14;21.70;98.10
43651;DHT22;29247;50.944;5.382;2023-10-13T09:52:17;21.80;98.10
43651;DHT22;29247;50.944;5.382;2023-10-13T09:55:00;21.80;97.90
43651;DHT22;29247;50.944;5.382;2023-10-13T09:57:37;21.90;97.70
43651;DHT22;29247;50.944;5.382;2023-10-13T10:00:11;21.90;97.30
43651;DHT22;29247;50.944;5.382;2023-10-13T10:02:57;21.90;97.20
43651;DHT22;29247;50.944;5.382;2023-10-13T10:05:27;21.90;97.10
43651;DHT22;29247;50.944;5.382;2023-10-13T10:07:58;21.90;96.90
43651;DHT22;29247;50.944;5.382;2023-10-13T10:10:50;21.90;96.80
43651;DHT22;29247;50.944;5.382;2023-10-13T10:16:12;21.90;96.50
43651;DHT22;29247;50.944;5.382;2023-10-13T10:18:45;22.00;96.40
43651;DHT22;29247;50.944;5.382;2023-10-13T10:21:11;22.00;96.20
43651;DHT22;29247;50.944;5.382;2023-10-13T10:23:39;22.00;96.10
43651;DHT22;29247;50.944;5.382;2023-10-13T10:26:14;22.10;96.00
43651;DHT22;29247;50.944;5.382;2023-10-13T10:28:47;22.10;96.00
43651;DHT22;29247;50.944;5.382;2023-10-13T10:31:16;22.10;95.80
43651;DHT22;29247;50.944;5.382;2023-10-13T10:33:48;22.10;95.70
43651;DHT22;29247;50.944;5.382;2023-10-13T10:36:17;22.10;95.60
43651;DHT22;29247;50.944;5.382;2023-10-13T10:38:54;22.10;95.70
43651;DHT22;29247;50.944;5.382;2023-10-13T10:41:30;22.20;95.60
43651;DHT22;29247;50.944;5.382;2023-10-13T10:44:11;22.20;95.50
43651;DHT22;29247;50.944;5.382;2023-10-13T10:47:10;22.20;95.50
43651;DHT22;29247;50.944;5.382;2023-10-13T10:49:39;22.30;95.40
43651;DHT22;29247;50.944;5.382;2023-10-13T10:52:09;22.30;95.20
43651;DHT22;29247;50.944;5.382;2023-10-13T10:54:44;22.40;95.10
43651;DHT22;29247;50.944;5.382;2023-10-13T10:57:13;22.40;94.90
43651;DHT22;29247;50.944;5.382;2023-10-13T10:59:48;22.50;94.90
43651;DHT22;29247;50.944;5.382;2023-10-13T11:02:36;22.50;94.80
43651;DHT22;29247;50.944;5.382;2023-10-13T11:05:02;22.50;94.60
43651;DHT22;29247;50.944;5.382;2023-10-13T11:07:31;22.50;94.40
43651;DHT22;29247;50.944;5.382;2023-10-13T11:10:09;22.60;94.30
43651;DHT22;29247;50.944;5.382;2023-10-13T11:15:21;22.60;94.20
43651;DHT22;29247;50.944;5.382;2023-10-13T11:18:38;22.60;94.10
43651;DHT22;29247;50.944;5.382;2023-10-13T11:21:08;22.70;94.10
43651;DHT22;29247;50.944;5.382;2023-10-13T11:23:40;22.70;93.90
43651;DHT22;29247;50.944;5.382;2023-10-13T11:26:06;22.70;93.90
43651;DHT22;29247;50.944;5.382;2023-10-13T11:28:32;22.70;93.70
43651;DHT22;29247;50.944;5.382;2023-10-13T11:30:59;22.70;93.60
43651;DHT22;29247;50.944;5.382;2023-10-13T11:33:28;22.70;93.50
43651;DHT22;29247;50.944;5.382;2023-10-13T11:35:57;22.70;93.50
43651;DHT22;29247;50.944;5.382;2023-10-13T11:38:33;22.70;93.40
43651;DHT22;29247;50.944;5.382;2023-10-13T11:41:30;22.70;93.20
43651;DHT22;29247;50.944;5.382;2023-10-13T11:44:10;22.80;93.20
43651;DHT22;29247;50.944;5.382;2023-10-13T11:46:49;22.80;92.90
43651;DHT22;29247;50.944;5.382;2023-10-13T11:49:21;22.90;92.90
43651;DHT22;29247;50.944;5.382;2023-10-13T11:51:49;22.90;92.80
43651;DHT22;29247;50.944;5.382;2023-10-13T11:54:15;22.90;92.70
43651;DHT22;29247;50.944;5.382;2023-10-13T11:56:42;22.90;92.60
43651;DHT22;29247;50.944;5.382;2023-10-13T11:59:07;22.90;92.30
43651;DHT22;29247;50.944;5.382;2023-10-13T12:01:48;23.00;92.10
43651;DHT22;29247;50.944;5.382;2023-10-13T12:04:33;23.00;91.80
43651;DHT22;29247;50.944;5.382;2023-10-13T12:07:21;22.90;91.70
43651;DHT22;29247;50.944;5.382;2023-10-13T12:09:52;22.90;91.70
43651;DHT22;29247;50.944;5.382;2023-10-13T12:12:27;23.00;91.60
43651;DHT22;29247;50.944;5.382;2023-10-13T12:14:53;22.90;91.60
43651;DHT22;29247;50.944;5.382;2023-10-13T12:17:34;22.90;91.30
43651;DHT22;29247;50.944;5.382;2023-10-13T12:20:05;22.90;91.20
43651;DHT22;29247;50.944;5.382;2023-10-13T12:22:32;23.00;91.20
43651;DHT22;29247;50.944;5.382;2023-10-13T12:25:01;23.00;91.30
43651;DHT22;29247;50.944;5.382;2023-10-13T12:27:31;23.00;91.30
43651;DHT22;29247;50.944;5.382;2023-10-13T12:30:15;23.10;91.10
43651;DHT22;29247;50.944;5.382;2023-10-13T12:32:49;23.10;91.10
43651;DHT22;29247;50.944;5.382;2023-10-13T12:35:32;23.20;91.00
43651;DHT22;29247;50.944;5.382;2023-10-13T12:38:19;23.20;90.90
43651;DHT22;29247;50.944;5.382;2023-10-13T12:41:07;23.30;90.70
43651;DHT22;29247;50.944;5.382;2023-10-13T12:43:51;23.30;90.50
43651;DHT22;29247;50.944;5.382;2023-10-13T12:46:37;23.30;90.40
43651;DHT22;29247;50.944;5.382;2023-10-13T12:49:23;23.40;90.30
43651;DHT22;29247;50.944;5.382;2023-10-13T12:52:15;23.40;90.10
43651;DHT22;29247;50.944;5.382;2023-10-13T12:54:57;23.40;89.90
43651;DHT22;29247;50.944;5.382;2023-10-13T12:57:27;23.40;89.60
43651;DHT22;29247;50.944;5.382;2023-10-13T12:59:53;23.30;89.50
43651;DHT22;29247;50.944;5.382;2023-10-13T13:02:25;23.30;89.40
43651;DHT22;29247;50.944;5.382;2023-10-13T13:04:55;23.30;89.20
43651;DHT22;29247;50.944;5.382;2023-10-13T13:07:38;23.30;89.10
43651;DHT22;29247;50.944;5.382;2023-10-13T13:10:18;23.30;88.70
43651;DHT22;29247;50.944;5.382;2023-10-13T13:12:44;23.30;88.70
43651;DHT22;29247;50.944;5.382;2023-10-13T13:15:10;23.30;88.40
43651;DHT22;29247;50.944;5.382;2023-10-13T13:17:40;23.20;88.10
43651;DHT22;29247;50.944;5.382;2023-10-13T13:20:06;23.20;88.10
43651;DHT22;29247;50.944;5.382;2023-10-13T13:22:55;23.20;87.60
43651;DHT22;29247;50.944;5.382;2023-10-13T13:25:21;23.20;87.50
43651;DHT22;29247;50.944;5.382;2023-10-13T13:27:56;23.10;87.50
43651;DHT22;29247;50.944;5.382;2023-10-13T13:30:22;23.10;87.60
43651;DHT22;29247;50.944;5.382;2023-10-13T13:32:52;23.10;87.60
43651;DHT22;29247;50.944;5.382;2023-10-13T13:35:20;23.10;87.80
43651;DHT22;29247;50.944;5.382;2023-10-13T13:37:46;23.10;87.50
43651;DHT22;29247;50.944;5.382;2023-10-13T13:40:14;23.00;87.30
43651;DHT22;29247;50.944;5.382;2023-10-13T13:42:44;23.00;87.30
43651;DHT22;29247;50.944;5.382;2023-10-13T13:45:18;23.00;87.10
43651;DHT22;29247;50.944;5.382;2023-10-13T13:47:53;22.90;87.00
43651;DHT22;29247;50.944;5.382;2023-10-13T13:50:24;22.90;87.00
43651;DHT22;29247;50.944;5.382;2023-10-13T13:52:51;22.90;87.20
43651;DHT22;29247;50.944;5.382;2023-10-13T13:55:19;22.90;87.20
43651;DHT22;29247;50.944;5.382;2023-10-13T13:57:45;22.90;87.30
43651;DHT22;29247;50.944;5.382;2023-10-13T14:00:12;22.90;87.30
43651;DHT22;29247;50.944;5.382;2023-10-13T14:03:05;22.90;87.30
43651;DHT22;29247;50.944;5.382;2023-10-13T14:05:36;22.90;87.30
43651;DHT22;29247;50.944;5.382;2023-10-13T14:08:05;22.90;87.30
43651;DHT22;29247;50.944;5.382;2023-10-13T14:10:39;22.90;87.70
43651;DHT22;29247;50.944;5.382;2023-10-13T14:13:26;22.90;87.50
43651;DHT22;29247;50.944;5.382;2023-10-13T14:16:12;22.90;87.50
43651;DHT22;29247;50.944;5.382;2023-10-13T14:18:46;22.90;87.50
43651;DHT22;29247;50.944;5.382;2023-10-13T14:21:12;22.90;87.80
43651;DHT22;29247;50.944;5.382;2023-10-13T14:24:02;22.90;87.70
43651;DHT22;29247;50.944;5.382;2023-10-13T14:26:28;22.80;87.80
43651;DHT22;29247;50.944;5.382;2023-10-13T14:28:55;22.80;87.70
43651;DHT22;29247;50.944;5.382;2023-10-13T14:31:31;22.80;87.70
43651;DHT22;29247;50.944;5.382;2023-10-13T14:33:57;22.80;87.70
43651;DHT22;29247;50.944;5.382;2023-10-13T14:36:25;22.80;87.60
43651;DHT22;29247;50.944;5.382;2023-10-13T14:38:55;22.70;87.70
43651;DHT22;29247;50.944;5.382;2023-10-13T14:41:23;22.70;87.80
43651;DHT22;29247;50.944;5.382;2023-10-13T14:43:49;22.80;87.80
43651;DHT22;29247;50.944;5.382;2023-10-13T14:46:30;22.70;87.70
43651;DHT22;29247;50.944;5.382;2023-10-13T14:48:56;22.70;87.80
43651;DHT22;29247;50.944;5.382;2023-10-13T14:51:22;22.70;87.80
43651;DHT22;29247;50.944;5.382;2023-10-13T14:53:51;22.70;87.80
43651;DHT22;29247;50.944;5.382;2023-10-13T14:56:22;22.70;87.90
43651;DHT22;29247;50.944;5.382;2023-10-13T14:58:54;22.70;87.90
43651;DHT22;29247;50.944;5.382;2023-10-13T15:01:23;22.70;87.80
43651;DHT22;29247;50.944;5.382;2023-10-13T15:03:52;22.70;87.80
43651;DHT22;29247;50.944;5.382;2023-10-13T15:06:22;22.70;87.70
43651;DHT22;29247;50.944;5.382;2023-10-13T15:08:56;22.60;87.70
43651;DHT22;29247;50.944;5.382;2023-10-13T15:11:22;22.60;87.90
43651;DHT22;29247;50.944;5.382;2023-10-13T15:13:55;22.60;87.90
43651;DHT22;29247;50.944;5.382;2023-10-13T15:16:25;22.60;87.90
43651;DHT22;29247;50.944;5.382;2023-10-13T15:19:20;22.60;88.10
43651;DHT22;29247;50.944;5.382;2023-10-13T15:21:46;22.50;88.40
43651;DHT22;29247;50.944;5.382;2023-10-13T15:24:20;22.60;88.70
43651;DHT22;29247;50.944;5.382;2023-10-13T15:26:48;22.40;88.80
43651;DHT22;29247;50.944;5.382;2023-10-13T15:31:45;22.50;88.80
43651;DHT22;29247;50.944;5.382;2023-10-13T15:34:31;22.40;88.80
43651;DHT22;29247;50.944;5.382;2023-10-13T15:36:58;22.40;88.60
43651;DHT22;29247;50.944;5.382;2023-10-13T15:39:24;22.40;88.70
43651;DHT22;29247;50.944;5.382;2023-10-13T15:41:55;22.40;88.80
43651;DHT22;29247;50.944;5.382;2023-10-13T15:44:24;22.40;88.80
43651;DHT22;29247;50.944;5.382;2023-10-13T15:46:56;22.40;88.80
43651;DHT22;29247;50.944;5.382;2023-10-13T15:49:22;22.30;88.50
43651;DHT22;29247;50.944;5.382;2023-10-13T15:51:48;22.30;88.60
43651;DHT22;29247;50.944;5.382;2023-10-13T15:54:16;22.30;88.70
43651;DHT22;29247;50.944;5.382;2023-10-13T15:56:48;22.30;88.70
43651;DHT22;29247;50.944;5.382;2023-10-13T15:59:16;22.30;88.60
43651;DHT22;29247;50.944;5.382;2023-10-13T16:01:46;22.20;88.60
43651;DHT22;29247;50.944;5.382;2023-10-13T16:04:13;22.20;88.80
43651;DHT22;29247;50.944;5.382;2023-10-13T16:06:45;22.20;89.00
43651;DHT22;29247;50.944;5.382;2023-10-13T16:09:19;22.20;89.30
43651;DHT22;29247;50.944;5.382;2023-10-13T16:11:51;22.20;89.60
43651;DHT22;29247;50.944;5.382;2023-10-13T16:14:17;22.20;90.00
43651;DHT22;29247;50.944;5.382;2023-10-13T16:16:44;22.20;90.00
43651;DHT22;29247;50.944;5.382;2023-10-13T16:19:10;22.10;90.20
43651;DHT22;29247;50.944;5.382;2023-10-13T16:21:36;22.10;90.40
43651;DHT22;29247;50.944;5.382;2023-10-13T16:24:07;22.00;90.50
43651;DHT22;29247;50.944;5.382;2023-10-13T16:26:46;22.00;90.70
43651;DHT22;29247;50.944;5.382;2023-10-13T16:29:18;21.90;90.80
43651;DHT22;29247;50.944;5.382;2023-10-13T16:31:46;21.90;91.00